sensor_id;sensor_type;location;lat;lon;timestamp;temperature;humidity
23305;DHT22;11821;51.456;8.844;2022-08-14T00:00:39;20.90;99.90
23305;DHT22;11821;51.456;8.844;2022-08-14T00:03:05;20.90;99.90
23305;DHT22;11821;51.456;8.844;2022-08-14T00:05:31;20.80;99.90
23305;DHT22;11821;51.456;8.844;2022-08-14T00:07:57;20.80;99.90
23305;DHT22;11821;51.456;8.844;2022-08-14T00:10:24;20.80;99.90
23305;DHT22;11821;51.456;8.844;2022-08-14T00:12:53;20.80;99.90
23305;DHT22;11821;51.456;8.844;2022-08-14T00:15:32;20.70;99.90
23305;DHT22;11821;51.456;8.844;2022-08-14T00:18:02;20.70;99.90
23305;DHT22;11821;51.456;8.844;2022-08-14T00:20:32;20.70;99.90
23305;DHT22;11821;51.456;8.844;2022-08-14T00:22:59;20.60;99.90
23305;DHT22;11821;51.456;8.844;2022-08-14T00:25:27;20.70;99.90
23305;DHT22;11821;51.456;8.844;2022-08-14T00:27:54;20.60;99.90
23305;DHT22;11821;51.456;8.844;2022-08-14T00:30:21;20.50;99.90
23305;DHT22;11821;51.456;8.844;2022-08-14T00:32:47;20.50;99.90
23305;DHT22;11821;51.456;8.844;2022-08-14T00:35:14;20.50;99.90
23305;DHT22;11821;51.456;8.844;2022-08-14T00:37:42;20.40;99.90
23305;DHT22;11821;51.456;8.844;2022-08-14T00:40:12;20.40;99.90
23305;DHT22;11821;51.456;8.844;2022-08-14T00:42:39;20.30;99.90
23305;DHT22;11821;51.456;8.844;2022-08-14T00:45:08;20.30;99.90
23305;DHT22;11821;51.456;8.844;2022-08-14T00:47:34;20.20;99.90
23305;DHT22;11821;51.456;8.844;2022-08-14T00:50:02;20.30;99.90
23305;DHT22;11821;51.456;8.844;2022-08-14T00:52:29;20.20;99.90
23305;DHT22;11821;51.456;8.844;2022-08-14T00:54:57;20.20;99.90
23305;DHT22;11821;51.456;8.844;2022-08-14T00:57:26;20.10;99.90
23305;DHT22;11821;51.456;8.844;2022-08-14T00:59:52;20.00;99.90
23305;DHT22;11821;51.456;8.844;2022-08-14T01:02:20;20.10;99.90
23305;DHT22;11821;51.456;8.844;2022-08-14T01:04:55;20.00;99.90
23305;DHT22;11821;51.456;8.844;2022-08-14T01:07:25;19.90;99.90
23305;DHT22;11821;51.456;8.844;2022-08-14T01:09:57;19.80;99.90
23305;DHT22;11821;51.456;8.844;2022-08-14T01:12:30;19.80;99.90
23305;DHT22;11821;51.456;8.844;2022-08-14T01:15:00;19.80;99.90
23305;DHT22;11821;51.456;8.844;2022-08-14T01:17:29;19.70;99.90
23305;DHT22;11821;51.456;8.844;2022-08-14T01:20:34;19.60;99.90
23305;DHT22;11821;51.456;8.844;2022-08-14T01:23:18;19.50;99.90
23305;DHT22;11821;51.456;8.844;2022-08-14T01:25:49;19.60;99.90
23305;DHT22;11821;51.456;8.844;2022-08-14T01:28:16;19.60;99.90
23305;DHT22;11821;51.456;8.844;2022-08-14T01:30:42;19.60;99.90
23305;DHT22;11821;51.456;8.844;2022-08-14T01:33:09;19.60;99.90
23305;DHT22;11821;51.456;8.844;2022-08-14T01:35:38;19.60;99.90
23305;DHT22;11821;51.456;8.844;2022-08-14T01:38:05;19.50;99.90
23305;DHT22;11821;51.456;8.844;2022-08-14T01:40:31;19.50;99.90
23305;DHT22;11821;51.456;8.844;2022-08-14T01:42:57;19.50;99.90
23305;DHT22;11821;51.456;8.844;2022-08-14T01:45:24;19.50;99.90
23305;DHT22;11821;51.456;8.844;2022-08-14T01:47:50;19.50;99.90
23305;DHT22;11821;51.456;8.844;2022-08-14T01:50:16;19.50;99.90
23305;DHT22;11821;51.456;8.844;2022-08-14T01:52:43;19.40;99.90
23305;DHT22;11821;51.456;8.844;2022-08-14T01:55:09;19.40;99.90
23305;DHT22;11821;51.456;8.844;2022-08-14T01:57:43;19.30;99.90
23305;DHT22;11821;51.456;8.844;2022-08-14T02:00:10;19.30;99.90
23305;DHT22;11821;51.456;8.844;2022-08-14T02:02:41;19.20;99.90
23305;DHT22;11821;51.456;8.844;2022-08-14T02:05:11;19.10;99.90
23305;DHT22;11821;51.456;8.844;2022-08-14T02:07:39;19.10;99.90
23305;DHT22;11821;51.456;8.844;2022-08-14T02:10:06;19.10;99.90
23305;DHT22;11821;51.456;8.844;2022-08-14T02:12:33;19.10;99.90
23305;DHT22;11821;51.456;8.844;2022-08-14T02:14:59;19.10;99.90
23305;DHT22;11821;51.456;8.844;2022-08-14T02:17:27;19.10;99.90
23305;DHT22;11821;51.456;8.844;2022-08-14T02:19:53;19.10;99.90
23305;DHT22;11821;51.456;8.844;2022-08-14T02:22:20;19.10;99.90
23305;DHT22;11821;51.456;8.844;2022-08-14T02:24:46;19.10;99.90
23305;DHT22;11821;51.456;8.844;2022-08-14T02:27:13;19.10;99.90
23305;DHT22;11821;51.456;8.844;2022-08-14T02:29:39;19.10;99.90
23305;DHT22;11821;51.456;8.844;2022-08-14T02:32:09;19.00;99.90
23305;DHT22;11821;51.456;8.844;2022-08-14T02:34:36;19.00;99.90
23305;DHT22;11821;51.456;8.844;2022-08-14T02:37:04;19.00;99.90
23305;DHT22;11821;51.456;8.844;2022-08-14T02:39:36;19.00;99.90
23305;DHT22;11821;51.456;8.844;2022-08-14T02:42:04;18.90;99.90
23305;DHT22;11821;51.456;8.844;2022-08-14T02:44:30;19.00;99.90
23305;DHT22;11821;51.456;8.844;2022-08-14T02:46:56;18.90;99.90
23305;DHT22;11821;51.456;8.844;2022-08-14T02:49:24;18.90;99.90
23305;DHT22;11821;51.456;8.844;2022-08-14T02:51:56;18.90;99.90
23305;DHT22;11821;51.456;8.844;2022-08-14T02:54:24;18.80;99.90
23305;DHT22;11821;51.456;8.844;2022-08-14T02:56:53;18.90;99.90
23305;DHT22;11821;51.456;8.844;2022-08-14T02:59:19;18.90;99.90
23305;DHT22;11821;51.456;8.844;2022-08-14T03:01:46;18.80;99.90
23305;DHT22;11821;51.456;8.844;2022-08-14T03:04:13;18.80;99.90
23305;DHT22;11821;51.456;8.844;2022-08-14T03:06:40;18.80;99.90
23305;DHT22;11821;51.456;8.844;2022-08-14T03:09:09;18.80;99.90
23305;DHT22;11821;51.456;8.844;2022-08-14T03:11:37;18.70;99.90
23305;DHT22;11821;51.456;8.844;2022-08-14T03:14:04;18.60;99.90
23305;DHT22;11821;51.456;8.844;2022-08-14T03:16:30;18.60;99.90
23305;DHT22;11821;51.456;8.844;2022-08-14T03:19:03;18.60;99.90
23305;DHT22;11821;51.456;8.844;2022-08-14T03:21:30;18.70;99.90
23305;DHT22;11821;51.456;8.844;2022-08-14T03:23:56;18.60;99.90
23305;DHT22;11821;51.456;8.844;2022-08-14T03:26:45;18.60;99.90
23305;DHT22;11821;51.456;8.844;2022-08-14T03:29:16;18.50;99.90
23305;DHT22;11821;51.456;8.844;2022-08-14T03:31:46;18.50;99.90
23305;DHT22;11821;51.456;8.844;2022-08-14T03:34:17;18.40;99.90
23305;DHT22;11821;51.456;8.844;2022-08-14T03:36:43;18.50;99.90
23305;DHT22;11821;51.456;8.844;2022-08-14T03:39:11;18.50;99.90
23305;DHT22;11821;51.456;8.844;2022-08-14T03:41:37;18.40;99.90
23305;DHT22;11821;51.456;8.844;2022-08-14T03:44:05;18.40;99.90
23305;DHT22;11821;51.456;8.844;2022-08-14T03:46:33;18.50;99.90
23305;DHT22;11821;51.456;8.844;2022-08-14T03:49:02;18.40;99.90
23305;DHT22;11821;51.456;8.844;2022-08-14T03:51:31;18.40;99.90
23305;DHT22;11821;51.456;8.844;2022-08-14T03:54:01;18.40;99.90
23305;DHT22;11821;51.456;8.844;2022-08-14T03:56:29;18.40;99.90
23305;DHT22;11821;51.456;8.844;2022-08-14T03:58:58;18.40;99.90
23305;DHT22;11821;51.456;8.844;2022-08-14T04:01:25;18.40;99.90
23305;DHT22;11821;51.456;8.844;2022-08-14T04:03:54;18.20;99.90
23305;DHT22;11821;51.456;8.844;2022-08-14T04:06:23;18.20;99.90
23305;DHT22;11821;51.456;8.844;2022-08-14T04:08:49;18.10;99.90
23305;DHT22;11821;51.456;8.844;2022-08-14T04:11:16;18.10;99.90
23305;DHT22;11821;51.456;8.844;2022-08-14T04:13:44;18.20;99.90
23305;DHT22;11821;51.456;8.844;2022-08-14T04:16:16;18.20;99.90
23305;DHT22;11821;51.456;8.844;2022-08-14T04:18:44;18.20;99.90
23305;DHT22;11821;51.456;8.844;2022-08-14T04:21:12;18.10;99.90
23305;DHT22;11821;51.456;8.844;2022-08-14T04:23:39;18.10;99.90
23305;DHT22;11821;51.456;8.844;2022-08-14T04:26:09;18.00;99.90
23305;DHT22;11821;51.456;8.844;2022-08-14T04:28:37;18.10;99.90
23305;DHT22;11821;51.456;8.844;2022-08-14T04:31:04;18.10;99.90
23305;DHT22;11821;51.456;8.844;2022-08-14T04:33:32;18.10;99.90
23305;DHT22;11821;51.456;8.844;2022-08-14T04:35:58;18.10;99.90
23305;DHT22;11821;51.456;8.844;2022-08-14T04:38:25;18.10;99.90
23305;DHT22;11821;51.456;8.844;2022-08-14T04:41:10;18.10;99.90
23305;DHT22;11821;51.456;8.844;2022-08-14T04:43:54;18.10;99.90
23305;DHT22;11821;51.456;8.844;2022-08-14T04:46:22;18.10;99.90
23305;DHT22;11821;51.456;8.844;2022-08-14T04:48:49;18.00;99.90
23305;DHT22;11821;51.456;8.844;2022-08-14T04:51:19;18.10;99.90
23305;DHT22;11821;51.456;8.844;2022-08-14T04:53:48;18.10;99.90
23305;DHT22;11821;51.456;8.844;2022-08-14T04:56:16;18.10;99.90
23305;DHT22;11821;51.456;8.844;2022-08-14T04:58:51;18.10;99.90
23305;DHT22;11821;51.456;8.844;2022-08-14T05:01:20;18.00;99.90
23305;DHT22;11821;51.456;8.844;2022-08-14T05:03:47;18.10;99.90
23305;DHT22;11821;51.456;8.844;2022-08-14T05:06:14;18.10;99.90
23305;DHT22;11821;51.456;8.844;2022-08-14T05:08:40;18.20;99.90
23305;DHT22;11821;51.456;8.844;2022-08-14T05:11:08;18.20;99.90
23305;DHT22;11821;51.456;8.844;2022-08-14T05:13:36;18.20;99.90
23305;DHT22;11821;51.456;8.844;2022-08-14T05:16:03;18.20;99.90
23305;DHT22;11821;51.456;8.844;2022-08-14T05:18:37;18.20;99.90
23305;DHT22;11821;51.456;8.844;2022-08-14T05:21:05;18.30;99.90
23305;DHT22;11821;51.456;8.844;2022-08-14T05:23:34;18.30;99.90
23305;DHT22;11821;51.456;8.844;2022-08-14T05:26:01;18.30;99.90
23305;DHT22;11821;51.456;8.844;2022-08-14T05:28:30;18.30;99.90
23305;DHT22;11821;51.456;8.844;2022-08-14T05:30:59;18.30;99.90
23305;DHT22;11821;51.456;8.844;2022-08-14T05:33:27;18.40;99.90
23305;DHT22;11821;51.456;8.844;2022-08-14T05:35:56;18.40;99.90
23305;DHT22;11821;51.456;8.844;2022-08-14T05:38:28;18.50;99.90
23305;DHT22;11821;51.456;8.844;2022-08-14T05:41:18;18.50;99.90
23305;DHT22;11821;51.456;8.844;2022-08-14T05:43:46;18.60;99.90
23305;DHT22;11821;51.456;8.844;2022-08-14T05:46:14;18.70;99.90
23305;DHT22;11821;51.456;8.844;2022-08-14T05:48:56;18.80;99.90
23305;DHT22;11821;51.456;8.844;2022-08-14T05:51:23;18.80;99.90
23305;DHT22;11821;51.456;8.844;2022-08-14T05:53:50;18.80;99.90
23305;DHT22;11821;51.456;8.844;2022-08-14T05:56:16;18.80;99.90
23305;DHT22;11821;51.456;8.844;2022-08-14T05:58:43;18.90;99.90
23305;DHT22;11821;51.456;8.844;2022-08-14T06:01:10;19.00;99.90
23305;DHT22;11821;51.456;8.844;2022-08-14T06:03:36;19.10;99.90
23305;DHT22;11821;51.456;8.844;2022-08-14T06:06:02;19.10;99.90
23305;DHT22;11821;51.456;8.844;2022-08-14T06:08:30;19.30;99.90
23305;DHT22;11821;51.456;8.844;2022-08-14T06:11:01;19.30;99.90
23305;DHT22;11821;51.456;8.844;2022-08-14T06:13:29;19.30;99.90
23305;DHT22;11821;51.456;8.844;2022-08-14T06:15:56;19.40;99.90
23305;DHT22;11821;51.456;8.844;2022-08-14T06:18:22;19.50;99.90
23305;DHT22;11821;51.456;8.844;2022-08-14T06:20:48;19.60;99.90
23305;DHT22;11821;51.456;8.844;2022-08-14T06:23:14;19.70;99.90
23305;DHT22;11821;51.456;8.844;2022-08-14T06:25:41;19.80;99.90
23305;DHT22;11821;51.456;8.844;2022-08-14T06:28:17;19.80;99.90
23305;DHT22;11821;51.456;8.844;2022-08-14T06:30:44;20.00;99.90
23305;DHT22;11821;51.456;8.844;2022-08-14T06:33:11;20.10;99.90
23305;DHT22;11821;51.456;8.844;2022-08-14T06:35:38;20.20;99.90
23305;DHT22;11821;51.456;8.844;2022-08-14T06:38:05;20.30;99.90
23305;DHT22;11821;51.456;8.844;2022-08-14T06:40:36;20.50;99.90
23305;DHT22;11821;51.456;8.844;2022-08-14T06:43:08;20.70;99.90
23305;DHT22;11821;51.456;8.844;2022-08-14T06:45:37;20.90;99.90
23305;DHT22;11821;51.456;8.844;2022-08-14T06:48:15;21.00;99.90
23305;DHT22;11821;51.456;8.844;2022-08-14T06:50:42;21.20;99.90
23305;DHT22;11821;51.456;8.844;2022-08-14T06:53:09;21.40;99.90
23305;DHT22;11821;51.456;8.844;2022-08-14T06:55:37;21.50;99.90
23305;DHT22;11821;51.456;8.844;2022-08-14T06:58:03;21.70;99.90
23305;DHT22;11821;51.456;8.844;2022-08-14T07:00:29;21.80;99.90
23305;DHT22;11821;51.456;8.844;2022-08-14T07:02:56;22.00;99.90
23305;DHT22;11821;51.456;8.844;2022-08-14T07:05:40;22.20;99.90
23305;DHT22;11821;51.456;8.844;2022-08-14T07:08:19;22.50;99.90
23305;DHT22;11821;51.456;8.844;2022-08-14T07:10:49;22.70;99.90
23305;DHT22;11821;51.456;8.844;2022-08-14T07:13:16;23.00;99.90
23305;DHT22;11821;51.456;8.844;2022-08-14T07:15:45;23.30;99.90
23305;DHT22;11821;51.456;8.844;2022-08-14T07:18:14;23.50;99.90
23305;DHT22;11821;51.456;8.844;2022-08-14T07:20:41;23.80;99.90
23305;DHT22;11821;51.456;8.844;2022-08-14T07:23:08;24.00;99.90
23305;DHT22;11821;51.456;8.844;2022-08-14T07:25:36;24.10;99.90
23305;DHT22;11821;51.456;8.844;2022-08-14T07:28:14;24.30;99.90
23305;DHT22;11821;51.456;8.844;2022-08-14T07:30:41;24.20;99.90
23305;DHT22;11821;51.456;8.844;2022-08-14T07:33:08;24.30;99.90
23305;DHT22;11821;51.456;8.844;2022-08-14T07:35:35;24.70;99.90
23305;DHT22;11821;51.456;8.844;2022-08-14T07:38:03;25.10;99.90
23305;DHT22;11821;51.456;8.844;2022-08-14T07:40:30;25.60;99.90
23305;DHT22;11821;51.456;8.844;2022-08-14T07:42:56;25.90;99.90
23305;DHT22;11821;51.456;8.844;2022-08-14T07:45:22;26.20;99.90
23305;DHT22;11821;51.456;8.844;2022-08-14T07:47:49;26.20;99.90
23305;DHT22;11821;51.456;8.844;2022-08-14T07:50:17;26.60;99.90
23305;DHT22;11821;51.456;8.844;2022-08-14T07:52:45;26.90;99.90
23305;DHT22;11821;51.456;8.844;2022-08-14T07:55:13;27.20;99.90
23305;DHT22;11821;51.456;8.844;2022-08-14T07:57:41;27.40;99.90
23305;DHT22;11821;51.456;8.844;2022-08-14T08:00:10;27.70;99.90
23305;DHT22;11821;51.456;8.844;2022-08-14T08:02:40;27.70;99.20
23305;DHT22;11821;51.456;8.844;2022-08-14T08:05:08;28.00;99.90
23305;DHT22;11821;51.456;8.844;2022-08-14T08:07:37;28.20;99.30
23305;DHT22;11821;51.456;8.844;2022-08-14T08:13:00;28.70;99.40
23305;DHT22;11821;51.456;8.844;2022-08-14T08:15:30;28.70;98.40
23305;DHT22;11821;51.456;8.844;2022-08-14T08:17:59;28.90;98.00
23305;DHT22;11821;51.456;8.844;2022-08-14T08:20:29;29.10;98.40
23305;DHT22;11821;51.456;8.844;2022-08-14T08:22:57;29.10;97.20
23305;DHT22;11821;51.456;8.844;2022-08-14T08:25:25;29.30;97.90
23305;DHT22;11821;51.456;8.844;2022-08-14T08:27:55;29.30;97.80
23305;DHT22;11821;51.456;8.844;2022-08-14T08:30:22;28.80;97.40
23305;DHT22;11821;51.456;8.844;2022-08-14T08:32:51;28.30;98.30
23305;DHT22;11821;51.456;8.844;2022-08-14T08:35:22;28.40;98.10
23305;DHT22;11821;51.456;8.844;2022-08-14T08:37:50;28.60;97.80
23305;DHT22;11821;51.456;8.844;2022-08-14T08:40:34;28.90;97.60
23305;DHT22;11821;51.456;8.844;2022-08-14T08:43:04;28.70;98.40
23305;DHT22;11821;51.456;8.844;2022-08-14T08:45:35;28.90;98.10
23305;DHT22;11821;51.456;8.844;2022-08-14T08:48:02;29.30;97.50
23305;DHT22;11821;51.456;8.844;2022-08-14T08:50:32;29.40;96.90
23305;DHT22;11821;51.456;8.844;2022-08-14T08:53:07;29.70;97.10
23305;DHT22;11821;51.456;8.844;2022-08-14T08:55:36;29.40;96.80
23305;DHT22;11821;51.456;8.844;2022-08-14T08:58:06;29.70;96.10
23305;DHT22;11821;51.456;8.844;2022-08-14T09:00:34;29.50;96.30
23305;DHT22;11821;51.456;8.844;2022-08-14T09:03:07;29.60;96.60
23305;DHT22;11821;51.456;8.844;2022-08-14T09:05:35;29.50;96.30
23305;DHT22;11821;51.456;8.844;2022-08-14T09:08:23;29.30;96.40
23305;DHT22;11821;51.456;8.844;2022-08-14T09:11:01;29.60;96.10
23305;DHT22;11821;51.456;8.844;2022-08-14T09:13:29;29.90;95.60
23305;DHT22;11821;51.456;8.844;2022-08-14T09:15:56;30.20;95.60
23305;DHT22;11821;51.456;8.844;2022-08-14T09:18:23;30.10;95.40
23305;DHT22;11821;51.456;8.844;2022-08-14T09:20:55;29.90;95.30
23305;DHT22;11821;51.456;8.844;2022-08-14T09:23:24;30.40;95.60
23305;DHT22;11821;51.456;8.844;2022-08-14T09:25:51;30.60;95.50
23305;DHT22;11821;51.456;8.844;2022-08-14T09:28:19;30.70;94.50
23305;DHT22;11821;51.456;8.844;2022-08-14T09:30:52;31.10;94.20
23305;DHT22;11821;51.456;8.844;2022-08-14T09:47:14;31.80;93.20
23305;DHT22;11821;51.456;8.844;2022-08-14T09:49:40;32.20;93.00
23305;DHT22;11821;51.456;8.844;2022-08-14T09:52:11;32.40;91.90
23305;DHT22;11821;51.456;8.844;2022-08-14T09:54:40;32.50;91.10
23305;DHT22;11821;51.456;8.844;2022-08-14T09:57:09;32.80;91.10
23305;DHT22;11821;51.456;8.844;2022-08-14T09:59:43;33.20;90.70
23305;DHT22;11821;51.456;8.844;2022-08-14T10:02:29;33.10;90.70
23305;DHT22;11821;51.456;8.844;2022-08-14T10:05:07;33.00;91.00
23305;DHT22;11821;51.456;8.844;2022-08-14T10:07:45;33.40;90.40
23305;DHT22;11821;51.456;8.844;2022-08-14T10:10:36;33.50;90.20
23305;DHT22;11821;51.456;8.844;2022-08-14T10:13:21;33.50;90.20
23305;DHT22;11821;51.456;8.844;2022-08-14T10:15:47;33.80;89.80
23305;DHT22;11821;51.456;8.844;2022-08-14T10:18:16;33.40;90.30
23305;DHT22;11821;51.456;8.844;2022-08-14T10:20:54;33.80;90.40
23305;DHT22;11821;51.456;8.844;2022-08-14T10:23:25;33.60;90.00
23305;DHT22;11821;51.456;8.844;2022-08-14T10:26:01;33.70;88.20
23305;DHT22;11821;51.456;8.844;2022-08-14T10:28:38;33.90;86.20
23305;DHT22;11821;51.456;8.844;2022-08-14T10:31:27;34.20;87.00
23305;DHT22;11821;51.456;8.844;2022-08-14T10:33:58;34.00;86.30
23305;DHT22;11821;51.456;8.844;2022-08-14T10:36:27;34.40;86.10
23305;DHT22;11821;51.456;8.844;2022-08-14T10:39:01;34.20;85.10
23305;DHT22;11821;51.456;8.844;2022-08-14T10:41:35;34.30;85.90
23305;DHT22;11821;51.456;8.844;2022-08-14T10:44:06;34.60;84.40
23305;DHT22;11821;51.456;8.844;2022-08-14T10:46:41;34.70;85.00
23305;DHT22;11821;51.456;8.844;2022-08-14T10:49:18;34.80;83.90
23305;DHT22;11821;51.456;8.844;2022-08-14T10:51:59;34.90;83.60
23305;DHT22;11821;51.456;8.844;2022-08-14T10:54:36;35.00;83.00
23305;DHT22;11821;51.456;8.844;2022-08-14T10:57:17;35.10;85.00
23305;DHT22;11821;51.456;8.844;2022-08-14T10:59:56;35.30;83.90
23305;DHT22;11821;51.456;8.844;2022-08-14T11:02:32;35.40;82.50
23305;DHT22;11821;51.456;8.844;2022-08-14T11:07:36;35.40;84.70
23305;DHT22;11821;51.456;8.844;2022-08-14T11:10:10;34.90;85.00
23305;DHT22;11821;51.456;8.844;2022-08-14T11:15:07;35.50;81.30
23305;DHT22;11821;51.456;8.844;2022-08-14T11:17:33;35.30;82.30
23305;DHT22;11821;51.456;8.844;2022-08-14T11:20:07;35.40;82.60
23305;DHT22;11821;51.456;8.844;2022-08-14T11:22:37;35.20;82.30
23305;DHT22;11821;51.456;8.844;2022-08-14T11:25:11;35.40;82.30
23305;DHT22;11821;51.456;8.844;2022-08-14T11:27:41;35.30;82.40
23305;DHT22;11821;51.456;8.844;2022-08-14T11:30:11;34.90;83.30
23305;DHT22;11821;51.456;8.844;2022-08-14T11:32:39;35.40;81.40
23305;DHT22;11821;51.456;8.844;2022-08-14T11:35:11;35.50;81.80
23305;DHT22;11821;51.456;8.844;2022-08-14T11:37:54;35.70;80.20
23305;DHT22;11821;51.456;8.844;2022-08-14T11:40:21;35.80;81.20
23305;DHT22;11821;51.456;8.844;2022-08-14T11:42:49;36.00;81.40
23305;DHT22;11821;51.456;8.844;2022-08-14T11:45:28;36.00;78.70
23305;DHT22;11821;51.456;8.844;2022-08-14T11:48:01;36.00;80.60
23305;DHT22;11821;51.456;8.844;2022-08-14T11:50:38;36.10;79.20
23305;DHT22;11821;51.456;8.844;2022-08-14T11:53:06;36.20;78.90
23305;DHT22;11821;51.456;8.844;2022-08-14T11:55:45;36.10;80.80
23305;DHT22;11821;51.456;8.844;2022-08-14T11:58:12;35.60;79.40
23305;DHT22;11821;51.456;8.844;2022-08-14T12:00:49;35.60;80.90
23305;DHT22;11821;51.456;8.844;2022-08-14T12:03:16;35.40;80.40
23305;DHT22;11821;51.456;8.844;2022-08-14T12:05:42;35.40;81.30
23305;DHT22;11821;51.456;8.844;2022-08-14T12:08:09;35.80;81.70
23305;DHT22;11821;51.456;8.844;2022-08-14T12:10:37;35.90;80.90
23305;DHT22;11821;51.456;8.844;2022-08-14T12:13:11;36.00;81.10
23305;DHT22;11821;51.456;8.844;2022-08-14T12:15:39;35.70;79.60
23305;DHT22;11821;51.456;8.844;2022-08-14T12:18:07;34.50;79.80
23305;DHT22;11821;51.456;8.844;2022-08-14T12:20:36;34.50;82.60
23305;DHT22;11821;51.456;8.844;2022-08-14T12:23:07;34.50;81.50
23305;DHT22;11821;51.456;8.844;2022-08-14T12:25:44;34.60;83.00
23305;DHT22;11821;51.456;8.844;2022-08-14T12:28:11;34.70;80.70
23305;DHT22;11821;51.456;8.844;2022-08-14T12:30:43;34.40;79.50
23305;DHT22;11821;51.456;8.844;2022-08-14T12:33:23;34.50;81.70
23305;DHT22;11821;51.456;8.844;2022-08-14T12:35:54;34.60;80.10
23305;DHT22;11821;51.456;8.844;2022-08-14T12:38:38;34.50;80.80
23305;DHT22;11821;51.456;8.844;2022-08-14T12:41:17;35.10;81.90
23305;DHT22;11821;51.456;8.844;2022-08-14T12:43:50;35.50;78.80
23305;DHT22;11821;51.456;8.844;2022-08-14T12:49:17;36.10;77.30
23305;DHT22;11821;51.456;8.844;2022-08-14T12:51:59;35.90;77.30
23305;DHT22;11821;51.456;8.844;2022-08-14T12:54:25;35.40;77.20
23305;DHT22;11821;51.456;8.844;2022-08-14T12:57:11;35.10;77.30
23305;DHT22;11821;51.456;8.844;2022-08-14T12:59:40;35.40;76.90
23305;DHT22;11821;51.456;8.844;2022-08-14T13:02:22;35.20;77.90
23305;DHT22;11821;51.456;8.844;2022-08-14T13:04:49;35.10;78.20
23305;DHT22;11821;51.456;8.844;2022-08-14T13:07:15;35.30;78.20
23305;DHT22;11821;51.456;8.844;2022-08-14T13:09:42;35.70;78.20
23305;DHT22;11821;51.456;8.844;2022-08-14T13:12:11;35.90;77.90
23305;DHT22;11821;51.456;8.844;2022-08-14T13:14:38;35.70;77.60
23305;DHT22;11821;51.456;8.844;2022-08-14T13:17:07;35.30;77.80
23305;DHT22;11821;51.456;8.844;2022-08-14T13:19:37;35.10;78.60
23305;DHT22;11821;51.456;8.844;2022-08-14T13:22:05;34.90;79.50
23305;DHT22;11821;51.456;8.844;2022-08-14T13:24:32;34.90;79.70
23305;DHT22;11821;51.456;8.844;2022-08-14T13:26:59;35.00;80.40
23305;DHT22;11821;51.456;8.844;2022-08-14T13:29:29;35.20;79.60
23305;DHT22;11821;51.456;8.844;2022-08-14T13:31:57;35.30;80.00
23305;DHT22;11821;51.456;8.844;2022-08-14T13:34:25;35.60;78.60
23305;DHT22;11821;51.456;8.844;2022-08-14T13:36:52;35.80;79.10
23305;DHT22;11821;51.456;8.844;2022-08-14T13:39:19;36.00;79.00
23305;DHT22;11821;51.456;8.844;2022-08-14T13:41:46;35.70;79.10
23305;DHT22;11821;51.456;8.844;2022-08-14T13:44:13;35.70;78.10
23305;DHT22;11821;51.456;8.844;2022-08-14T13:46:43;35.60;78.00
23305;DHT22;11821;51.456;8.844;2022-08-14T13:49:11;35.20;79.40
23305;DHT22;11821;51.456;8.844;2022-08-14T13:51:40;35.20;76.60
23305;DHT22;11821;51.456;8.844;2022-08-14T13:54:16;35.20;77.50
23305;DHT22;11821;51.456;8.844;2022-08-14T13:56:45;35.10;77.30
23305;DHT22;11821;51.456;8.844;2022-08-14T13:59:12;35.20;78.70
23305;DHT22;11821;51.456;8.844;2022-08-14T14:01:39;35.30;80.30
23305;DHT22;11821;51.456;8.844;2022-08-14T14:04:16;35.30;77.10
23305;DHT22;11821;51.456;8.844;2022-08-14T14:06:45;35.50;75.80
23305;DHT22;11821;51.456;8.844;2022-08-14T14:09:14;35.70;77.30
23305;DHT22;11821;51.456;8.844;2022-08-14T14:11:42;35.70;77.20
23305;DHT22;11821;51.456;8.844;2022-08-14T14:14:09;35.70;78.10
23305;DHT22;11821;51.456;8.844;2022-08-14T14:16:38;35.50;77.90
23305;DHT22;11821;51.456;8.844;2022-08-14T14:19:05;35.20;77.90
23305;DHT22;11821;51.456;8.844;2022-08-14T14:21:33;35.00;79.40
23305;DHT22;11821;51.456;8.844;2022-08-14T14:24:00;34.70;77.40
23305;DHT22;11821;51.456;8.844;2022-08-14T14:26:28;34.90;77.30
23305;DHT22;11821;51.456;8.844;2022-08-14T14:28:55;34.90;80.10
23305;DHT22;11821;51.456;8.844;2022-08-14T14:31:24;35.20;78.40
23305;DHT22;11821;51.456;8.844;2022-08-14T14:33:55;35.30;77.40
23305;DHT22;11821;51.456;8.844;2022-08-14T14:36:27;35.30;75.90
23305;DHT22;11821;51.456;8.844;2022-08-14T14:38:57;35.30;76.10
23305;DHT22;11821;51.456;8.844;2022-08-14T14:41:26;35.20;77.00
23305;DHT22;11821;51.456;8.844;2022-08-14T14:43:54;35.20;76.40
23305;DHT22;11821;51.456;8.844;2022-08-14T14:46:23;35.30;77.90
23305;DHT22;11821;51.456;8.844;2022-08-14T14:48:49;35.30;75.80
23305;DHT22;11821;51.456;8.844;2022-08-14T14:51:17;35.30;77.50
23305;DHT22;11821;51.456;8.844;2022-08-14T14:53:47;35.00;77.60
23305;DHT22;11821;51.456;8.844;2022-08-14T14:56:13;34.90;78.30
23305;DHT22;11821;51.456;8.844;2022-08-14T14:58:41;34.80;78.50
23305;DHT22;11821;51.456;8.844;2022-08-14T15:01:09;35.00;80.10
23305;DHT22;11821;51.456;8.844;2022-08-14T15:03:37;35.10;79.70
23305;DHT22;11821;51.456;8.844;2022-08-14T15:06:04;34.30;79.80
23305;DHT22;11821;51.456;8.844;2022-08-14T15:08:31;33.90;80.20
23305;DHT22;11821;51.456;8.844;2022-08-14T15:10:58;33.30;81.60
23305;DHT22;11821;51.456;8.844;2022-08-14T15:13:28;33.20;82.60
23305;DHT22;11821;51.456;8.844;2022-08-14T15:15:54;32.80;83.70
23305;DHT22;11821;51.456;8.844;2022-08-14T15:18:21;32.70;83.90
23305;DHT22;11821;51.456;8.844;2022-08-14T15:20:48;32.50;84.30
23305;DHT22;11821;51.456;8.844;2022-08-14T15:23:16;32.30;83.40
23305;DHT22;11821;51.456;8.844;2022-08-14T15:25:43;32.00;84.10
23305;DHT22;11821;51.456;8.844;2022-08-14T15:28:10;31.80;85.00
23305;DHT22;11821;51.456;8.844;2022-08-14T15:30:39;31.60;86.10
23305;DHT22;11821;51.456;8.844;2022-08-14T15:33:05;31.70;84.80
23305;DHT22;11821;51.456;8.844;2022-08-14T15:35:31;31.60;85.30
23305;DHT22;11821;51.456;8.844;2022-08-14T15:37:59;31.90;85.90
23305;DHT22;11821;51.456;8.844;2022-08-14T15:40:37;31.80;85.30
23305;DHT22;11821;51.456;8.844;2022-08-14T15:43:06;31.80;84.90
23305;DHT22;11821;51.456;8.844;2022-08-14T15:45:32;31.90;85.70
23305;DHT22;11821;51.456;8.844;2022-08-14T15:47:59;31.90;85.40
23305;DHT22;11821;51.456;8.844;2022-08-14T15:50:27;31.70;85.00
23305;DHT22;11821;51.456;8.844;2022-08-14T15:52:55;31.90;85.10
23305;DHT22;11821;51.456;8.844;2022-08-14T15:55:21;31.70;86.60
23305;DHT22;11821;51.456;8.844;2022-08-14T15:57:48;31.70;85.10
23305;DHT22;11821;51.456;8.844;2022-08-14T16:00:14;31.80;86.50
23305;DHT22;11821;51.456;8.844;2022-08-14T16:03:00;31.60;85.20
23305;DHT22;11821;51.456;8.844;2022-08-14T16:05:26;31.90;85.30
23305;DHT22;11821;51.456;8.844;2022-08-14T16:07:53;31.80;84.70
23305;DHT22;11821;51.456;8.844;2022-08-14T16:10:22;31.80;85.20